Time;durP1;ratioP1;P1;durP2;ratioP2;P2;SDS_P1;SDS_P2;PMS_P1;PMS_P2;Temp;Humidity;BMP_temperature;BMP_pressure;BME280_temperature;BME280_humidity;BME280_pressure;Samples;Min_cycle;Max_cycle;Signal;HPM_P1;HPM_P2
2023/07/30 00:00:40;;;;;;;1.45;1.15;;;22.40;68.10;;;;;;4976574;28;20456;-50
2023/07/30 00:03:05;;;;;;;3.63;1.10;;;22.40;68.10;;;;;;4974032;28;20030;-52
2023/07/30 00:05:31;;;;;;;1.10;1.00;;;22.30;68.00;;;;;;4976152;28;20030;-56
2023/07/30 00:07:56;;;;;;;1.30;1.13;;;22.40;68.10;;;;;;4972759;28;20041;-50
2023/07/30 00:10:22;;;;;;;1.90;1.08;;;22.30;68.10;;;;;;4974279;28;20030;-51
2023/07/30 00:12:48;;;;;;;1.38;1.08;;;22.40;68.10;;;;;;4976930;28;20120;-58
2023/07/30 00:15:13;;;;;;;1.55;1.30;;;22.40;68.10;;;;;;4976821;28;20030;-54
2023/07/30 00:17:39;;;;;;;1.77;1.00;;;22.30;68.00;;;;;;4980295;28;20361;-49
2023/07/30 00:20:07;;;;;;;1.70;1.10;;;22.40;68.10;;;;;;4978340;28;20117;-56
2023/07/30 00:22:33;;;;;;;1.08;0.90;;;22.40;68.10;;;;;;4979581;28;20038;-55
2023/07/30 00:24:59;;;;;;;1.60;1.10;;;22.30;68.00;;;;;;4998571;28;20103;-52
2023/07/30 00:27:24;;;;;;;2.10;1.05;;;22.30;68.00;;;;;;4983222;28;20626;-52
2023/07/30 00:29:50;;;;;;;1.52;1.42;;;22.30;68.00;;;;;;4979538;28;20027;-54
2023/07/30 00:32:16;;;;;;;1.23;0.98;;;22.30;68.00;;;;;;4978926;28;20061;-58
2023/07/30 00:34:43;;;;;;;1.02;0.95;;;22.30;68.00;;;;;;4976800;28;20121;-55
2023/07/30 00:37:08;;;;;;;1.90;1.45;;;22.30;68.00;;;;;;4974568;28;20031;-51
2023/07/30 00:39:34;;;;;;;0.85;0.80;;;22.40;68.10;;;;;;4980569;28;20042;-52
2023/07/30 00:41:59;;;;;;;2.30;1.30;;;22.30;68.00;;;;;;4975744;28;20042;-52
2023/07/30 00:44:25;;;;;;;1.35;1.08;;;22.30;68.00;;;;;;4980055;28;20040;-51
2023/07/30 00:46:50;;;;;;;1.45;1.23;;;22.30;68.00;;;;;;4979686;28;20030;-51
2023/07/30 00:49:16;;;;;;;1.30;1.20;;;22.30;68.10;;;;;;4982768;28;20393;-51
2023/07/30 00:51:43;;;;;;;2.78;1.40;;;22.40;68.10;;;;;;4963837;28;20023;-50
2023/07/30 00:54:09;;;;;;;1.25;1.10;;;22.30;68.00;;;;;;4999400;28;20442;-50
2023/07/30 00:56:35;;;;;;;1.67;1.20;;;22.30;68.00;;;;;;4997444;28;20554;-51
2023/07/30 00:59:01;;;;;;;1.85;1.10;;;22.30;68.00;;;;;;4997613;28;20049;-52
2023/07/30 01:01:27;;;;;;;1.45;1.35;;;22.30;68.00;;;;;;5011938;23;20048;-53
2023/07/30 01:03:52;;;;;;;1.08;0.98;;;22.30;68.00;;;;;;5028495;28;20083;-51
2023/07/30 01:06:20;;;;;;;1.15;1.05;;;22.30;68.00;;;;;;5031715;28;20021;-50
2023/07/30 01:08:46;;;;;;;1.17;1.08;;;22.30;68.00;;;;;;5008277;28;20025;-50
2023/07/30 01:11:12;;;;;;;1.20;1.10;;;22.30;68.00;;;;;;5015176;28;20029;-50
2023/07/30 01:13:38;;;;;;;1.30;1.10;;;22.30;67.90;;;;;;5011774;28;20026;-51
2023/07/30 01:16:06;;;;;;;2.50;1.38;;;22.30;68.00;;;;;;5017386;28;20065;-52
2023/07/30 01:18:32;;;;;;;1.30;1.20;;;22.30;68.00;;;;;;5013402;28;20083;-50
2023/07/30 01:20:58;;;;;;;1.95;1.20;;;22.30;68.00;;;;;;5011997;28;20423;-50
2023/07/30 01:23:25;;;;;;;1.20;1.10;;;22.30;68.00;;;;;;5015074;28;20088;-50
2023/07/30 01:26:03;;;;;;;1.30;1.20;;;22.30;68.00;;;;;;5014214;28;20026;-51
2023/07/30 01:28:33;;;;;;;1.67;1.30;;;22.30;68.00;;;;;;5017795;28;20038;-50
2023/07/30 01:31:01;;;;;;;1.23;1.13;;;22.30;68.00;;;;;;5016409;28;20099;-50
2023/07/30 01:33:28;;;;;;;1.63;1.50;;;22.30;68.00;;;;;;5010833;28;20136;-50
2023/07/30 01:35:55;;;;;;;2.08;1.25;;;22.30;68.20;;;;;;5008230;28;20025;-50
2023/07/30 01:38:22;;;;;;;1.80;1.00;;;22.30;68.10;;;;;;5012465;28;20025;-49
2023/07/30 01:40:47;;;;;;;1.60;0.95;;;22.30;68.10;;;;;;5015892;28;20450;-51
2023/07/30 01:43:13;;;;;;;1.75;1.25;;;22.30;68.00;;;;;;5012375;28;20038;-51
2023/07/30 01:45:40;;;;;;;1.23;1.08;;;22.30;68.10;;;;;;5013800;28;20049;-51
2023/07/30 01:48:06;;;;;;;1.58;1.20;;;22.30;68.10;;;;;;5012973;28;20505;-53
2023/07/30 01:50:31;;;;;;;1.30;1.10;;;22.30;68.00;;;;;;5014106;28;20340;-49
2023/07/30 01:52:57;;;;;;;1.83;1.30;;;22.30;68.00;;;;;;5015770;28;20447;-52
2023/07/30 01:55:23;;;;;;;2.30;1.20;;;22.30;68.10;;;;;;5016685;28;20202;-51
2023/07/30 01:57:48;;;;;;;1.40;1.20;;;22.30;68.10;;;;;;5013975;28;20041;-51
2023/07/30 02:00:14;;;;;;;1.02;0.90;;;22.30;68.10;;;;;;5011977;28;20045;-51
2023/07/30 02:02:39;;;;;;;1.42;1.08;;;22.30;68.10;;;;;;5015697;28;20178;-49
2023/07/30 02:05:05;;;;;;;1.27;1.05;;;22.30;68.10;;;;;;5010432;28;20040;-53
2023/07/30 02:07:30;;;;;;;1.17;1.08;;;22.30;68.00;;;;;;5012201;28;20435;-51
2023/07/30 02:09:56;;;;;;;1.60;1.20;;;22.20;68.00;;;;;;5012110;28;20037;-51
2023/07/30 02:12:22;;;;;;;1.55;1.25;;;22.20;68.00;;;;;;5015166;28;20048;-50
2023/07/30 02:14:47;;;;;;;1.00;0.90;;;22.20;68.70;;;;;;5013256;28;20034;-50
2023/07/30 02:17:13;;;;;;;1.50;1.27;;;22.20;68.10;;;;;;5013480;28;20030;-51
2023/07/30 02:19:38;;;;;;;1.33;1.23;;;22.20;68.00;;;;;;5013829;28;20037;-51
2023/07/30 02:22:04;;;;;;;2.17;0.90;;;22.20;68.00;;;;;;5011969;28;20037;-50
2023/07/30 02:24:30;;;;;;;2.30;1.13;;;22.30;68.00;;;;;;5013464;28;20026;-55
2023/07/30 02:26:55;;;;;;;1.80;1.27;;;22.20;67.90;;;;;;5017367;28;20029;-51
2023/07/30 02:29:21;;;;;;;1.35;1.25;;;22.20;68.00;;;;;;5009002;28;20033;-50
2023/07/30 02:31:46;;;;;;;1.77;1.00;;;22.20;68.00;;;;;;5015252;28;20069;-49
2023/07/30 02:34:12;;;;;;;1.60;1.40;;;22.20;68.00;;;;;;5011663;28;20034;-50
2023/07/30 02:36:37;;;;;;;1.75;1.30;;;22.20;68.10;;;;;;5015960;28;20030;-52
2023/07/30 02:39:03;;;;;;;1.70;1.27;;;22.20;68.10;;;;;;5014504;28;20061;-52
2023/07/30 02:41:28;;;;;;;1.33;1.23;;;22.20;68.10;;;;;;5017174;28;20082;-50
2023/07/30 02:43:54;;;;;;;1.40;1.20;;;22.20;68.10;;;;;;5014910;28;20034;-50
2023/07/30 02:46:19;;;;;;;1.45;1.33;;;22.20;68.10;;;;;;5014587;28;20048;-50
2023/07/30 02:48:45;;;;;;;1.60;1.33;;;22.20;68.10;;;;;;5012235;28;20230;-51
2023/07/30 02:51:10;;;;;;;1.25;1.15;;;22.30;68.10;;;;;;5015645;28;20029;-50
2023/07/30 02:53:36;;;;;;;1.20;1.10;;;22.20;68.20;;;;;;5011054;28;20056;-52
2023/07/30 02:56:02;;;;;;;1.40;1.23;;;22.20;68.20;;;;;;5008574;28;20116;-52
2023/07/30 02:58:27;;;;;;;1.45;1.33;;;22.20;68.10;;;;;;5010915;28;20052;-50
2023/07/30 03:00:53;;;;;;;1.50;1.10;;;22.20;68.10;;;;;;5010734;28;20046;-50
2023/07/30 03:03:18;;;;;;;1.98;1.30;;;22.20;68.10;;;;;;5018047;28;20032;-53
2023/07/30 03:05:45;;;;;;;1.60;1.33;;;22.20;68.20;;;;;;5015420;28;20045;-49
2023/07/30 03:08:10;;;;;;;1.33;1.23;;;22.20;68.10;;;;;;5014281;28;20048;-52
2023/07/30 03:10:36;;;;;;;1.27;1.17;;;22.20;68.00;;;;;;5015138;28;20060;-49
2023/07/30 03:13:02;;;;;;;1.40;1.30;;;22.20;68.10;;;;;;5009877;28;20129;-51
2023/07/30 03:15:28;;;;;;;1.60;1.40;;;22.20;68.10;;;;;;5015118;28;20085;-50
2023/07/30 03:17:53;;;;;;;1.45;1.30;;;22.20;68.20;;;;;;5011364;28;20475;-53
2023/07/30 03:20:19;;;;;;;1.77;1.33;;;22.20;68.00;;;;;;5011989;28;20495;-53
2023/07/30 03:22:44;;;;;;;1.85;1.30;;;22.20;68.20;;;;;;5009881;28;20072;-50
2023/07/30 03:25:10;;;;;;;2.10;1.40;;;22.20;68.10;;;;;;5014038;28;20036;-51
2023/07/30 03:27:35;;;;;;;1.88;1.05;;;22.20;68.20;;;;;;5011068;28;20083;-50
2023/07/30 03:30:01;;;;;;;1.25;1.15;;;22.20;68.20;;;;;;5014362;28;20037;-53
2023/07/30 03:32:26;;;;;;;1.20;1.10;;;22.20;68.10;;;;;;5016606;28;20041;-50
2023/07/30 03:34:52;;;;;;;2.17;1.20;;;22.20;68.20;;;;;;5013159;28;20037;-50
2023/07/30 03:37:17;;;;;;;1.48;1.35;;;22.20;68.10;;;;;;5016023;28;20039;-51
2023/07/30 03:39:43;;;;;;;1.42;1.30;;;22.20;68.10;;;;;;5015399;28;20044;-51
2023/07/30 03:42:08;;;;;;;2.67;1.55;;;22.20;68.10;;;;;;5013625;28;20065;-49
2023/07/30 03:44:34;;;;;;;1.30;1.20;;;22.20;68.10;;;;;;4997582;28;20035;-51
2023/07/30 03:46:59;;;;;;;1.83;1.30;;;22.20;68.10;;;;;;5010573;28;20025;-50
2023/07/30 03:49:25;;;;;;;1.70;1.30;;;22.20;68.10;;;;;;5013558;28;20464;-51
2023/07/30 03:51:50;;;;;;;1.55;1.20;;;22.20;68.10;;;;;;5015120;28;20477;-51
2023/07/30 03:54:16;;;;;;;3.65;1.42;;;22.20;68.00;;;;;;5015527;28;20080;-50
2023/07/30 03:56:41;;;;;;;2.28;1.40;;;22.20;68.10;;;;;;5011483;28;20030;-51
2023/07/30 03:59:07;;;;;;;1.45;1.30;;;22.20;68.10;;;;;;5018397;28;20029;-49
2023/07/30 04:01:33;;;;;;;1.63;1.10;;;22.20;68.10;;;;;;5018025;28;20041;-51
2023/07/30 04:03:59;;;;;;;1.52;1.15;;;22.20;68.20;;;;;;5018178;28;20606;-49
2023/07/30 04:06:24;;;;;;;1.30;1.20;;;22.20;68.10;;;;;;5017093;28;20033;-53
2023/07/30 04:08:50;;;;;;;1.48;1.17;;;22.10;68.10;;;;;;5016419;28;20114;-52
2023/07/30 04:11:15;;;;;;;1.63;1.20;;;22.10;68.00;;;;;;5016553;28;20029;-49
2023/07/30 04:13:42;;;;;;;2.38;1.30;;;22.20;68.00;;;;;;5015711;28;20038;-50
2023/07/30 04:16:08;;;;;;;2.88;1.55;;;22.20;68.20;;;;;;5015802;28;20033;-52
2023/07/30 04:18:33;;;;;;;1.40;1.10;;;22.20;68.10;;;;;;5019263;28;20056;-50
2023/07/30 04:20:59;;;;;;;1.67;1.08;;;22.20;68.10;;;;;;5011633;28;20087;-50
2023/07/30 04:23:25;;;;;;;1.20;1.10;;;22.20;68.10;;;;;;5011110;28;20044;-50
2023/07/30 04:25:51;;;;;;;1.88;1.45;;;22.20;68.10;;;;;;5014282;28;20110;-50
2023/07/30 04:28:17;;;;;;;1.48;1.02;;;22.10;68.00;;;;;;5014901;28;20523;-50
2023/07/30 04:30:42;;;;;;;1.30;1.20;;;22.10;68.00;;;;;;5012669;28;20033;-51
2023/07/30 04:33:08;;;;;;;1.40;1.30;;;22.20;68.10;;;;;;5015959;28;20030;-51
2023/07/30 04:35:34;;;;;;;1.85;1.50;;;22.10;68.00;;;;;;5018866;28;20025;-50
2023/07/30 04:37:59;;;;;;;1.30;1.20;;;22.20;68.20;;;;;;5017950;28;20034;-51
2023/07/30 04:40:25;;;;;;;1.50;1.33;;;22.20;68.00;;;;;;5016421;28;20301;-52
2023/07/30 04:42:50;;;;;;;1.73;1.40;;;22.10;68.00;;;;;;5013169;28;20219;-50
2023/07/30 04:45:16;;;;;;;1.45;1.10;;;22.20;67.90;;;;;;5013114;28;20256;-53
2023/07/30 04:47:42;;;;;;;1.38;1.25;;;22.20;68.00;;;;;;5009108;28;20044;-51
2023/07/30 04:50:08;;;;;;;2.38;1.10;;;22.20;68.00;;;;;;5015675;28;20056;-50
2023/07/30 04:52:33;;;;;;;2.22;1.50;;;22.20;68.00;;;;;;5015537;28;20454;-50
2023/07/30 04:54:59;;;;;;;1.25;1.15;;;22.10;68.00;;;;;;5017624;28;20041;-52
2023/07/30 04:57:25;;;;;;;1.42;1.33;;;22.20;68.00;;;;;;5015098;28;20135;-49
2023/07/30 04:59:51;;;;;;;1.95;1.23;;;22.20;68.00;;;;;;5015456;28;20037;-50
2023/07/30 05:02:16;;;;;;;1.58;1.30;;;22.20;68.00;;;;;;5017517;28;20071;-53
2023/07/30 05:04:42;;;;;;;1.70;1.48;;;22.20;67.90;;;;;;5015298;28;20401;-50
2023/07/30 05:07:07;;;;;;;1.38;1.23;;;22.20;68.00;;;;;;5015522;28;20052;-50
2023/07/30 05:09:33;;;;;;;1.38;1.27;;;22.20;68.00;;;;;;5014032;28;20036;-53
2023/07/30 05:11:58;;;;;;;1.63;1.30;;;22.20;68.00;;;;;;5014962;28;20478;-50
2023/07/30 05:14:24;;;;;;;1.35;1.25;;;22.20;67.90;;;;;;5011771;28;20033;-52
2023/07/30 05:16:49;;;;;;;1.65;1.35;;;22.20;68.00;;;;;;5010586;28;20053;-51
2023/07/30 05:19:16;;;;;;;1.83;1.27;;;22.20;68.00;;;;;;5012760;28;20066;-51
2023/07/30 05:21:41;;;;;;;1.40;1.27;;;22.20;67.80;;;;;;5012119;28;20026;-51
2023/07/30 05:24:08;;;;;;;1.67;1.58;;;22.20;67.80;;;;;;5015070;28;20078;-50
2023/07/30 05:26:33;;;;;;;1.98;1.27;;;22.20;67.80;;;;;;5010703;28;20141;-51
2023/07/30 05:28:59;;;;;;;1.45;1.10;;;22.20;67.90;;;;;;5014826;28;20125;-52
2023/07/30 05:31:24;;;;;;;1.60;1.38;;;22.20;68.00;;;;;;5016946;28;20105;-51
2023/07/30 05:33:50;;;;;;;1.42;1.30;;;22.20;67.80;;;;;;5016744;28;20501;-54
2023/07/30 05:36:15;;;;;;;1.60;1.45;;;22.20;67.90;;;;;;5013570;28;20121;-51
2023/07/30 05:38:41;;;;;;;2.22;1.35;;;22.20;67.90;;;;;;5015316;28;20084;-53
2023/07/30 05:41:06;;;;;;;1.63;1.13;;;22.20;67.90;;;;;;5013094;28;20096;-50
2023/07/30 05:43:32;;;;;;;1.40;1.25;;;22.20;67.90;;;;;;5016257;28;20219;-52
2023/07/30 05:45:57;;;;;;;1.58;1.40;;;22.20;68.00;;;;;;5009318;28;20033;-52
2023/07/30 05:48:23;;;;;;;3.28;1.50;;;22.10;68.00;;;;;;5012168;28;20050;-52
2023/07/30 05:50:49;;;;;;;1.52;1.30;;;22.20;68.00;;;;;;5013046;28;20473;-50
2023/07/30 05:53:14;;;;;;;1.13;1.02;;;22.20;68.00;;;;;;5012326;28;20030;-53
2023/07/30 05:55:40;;;;;;;1.60;1.50;;;22.20;68.10;;;;;;5012823;28;20029;-51
2023/07/30 05:58:05;;;;;;;1.55;1.45;;;22.10;67.90;;;;;;5011980;28;20045;-50
2023/07/30 06:00:31;;;;;;;1.30;1.20;;;22.10;67.80;;;;;;5013520;28;20065;-52
2023/07/30 06:02:57;;;;;;;1.55;1.40;;;22.20;67.70;;;;;;5013398;28;20889;-50
2023/07/30 06:05:22;;;;;;;1.52;1.30;;;22.20;67.90;;;;;;5013850;28;20033;-52
2023/07/30 06:07:48;;;;;;;1.70;1.50;;;22.20;67.70;;;;;;5012626;28;20076;-50
2023/07/30 06:10:13;;;;;;;2.20;1.48;;;22.20;67.60;;;;;;5011851;28;20033;-50
2023/07/30 06:12:39;;;;;;;2.25;1.48;;;22.20;67.80;;;;;;5011219;28;20044;-50
2023/07/30 06:15:06;;;;;;;1.55;1.38;;;22.20;67.80;;;;;;5006759;28;20232;-53
2023/07/30 06:17:32;;;;;;;1.42;1.25;;;22.20;67.80;;;;;;5011066;28;20036;-57
2023/07/30 06:19:57;;;;;;;2.05;1.48;;;22.20;67.70;;;;;;5014858;28;20052;-50
2023/07/30 06:22:23;;;;;;;1.70;1.40;;;22.20;67.70;;;;;;5012036;28;20036;-51
2023/07/30 06:24:48;;;;;;;1.92;1.65;;;22.20;67.60;;;;;;5012276;28;20487;-50
2023/07/30 06:27:14;;;;;;;1.35;1.25;;;22.20;67.60;;;;;;5013716;28;20399;-51
2023/07/30 06:29:39;;;;;;;1.63;1.33;;;22.20;67.60;;;;;;5014169;28;20037;-51
2023/07/30 06:32:05;;;;;;;2.17;1.48;;;22.20;67.60;;;;;;5012499;28;20394;-50
2023/07/30 06:34:31;;;;;;;1.35;1.25;;;22.20;67.60;;;;;;5013019;28;20030;-51
2023/07/30 06:36:56;;;;;;;1.60;1.50;;;22.20;67.60;;;;;;5012836;28;20030;-51
2023/07/30 06:39:22;;;;;;;1.23;1.13;;;22.20;67.60;;;;;;5011143;28;20040;-51
2023/07/30 06:41:48;;;;;;;1.65;1.40;;;22.20;67.60;;;;;;5012688;28;20131;-51
2023/07/30 06:44:13;;;;;;;1.60;1.20;;;22.20;67.60;;;;;;5015204;28;20052;-50
2023/07/30 06:46:39;;;;;;;1.23;1.13;;;22.20;67.50;;;;;;5012453;28;20136;-50
2023/07/30 06:49:04;;;;;;;1.15;1.02;;;22.20;67.50;;;;;;5006399;28;20038;-51
2023/07/30 06:51:30;;;;;;;2.28;1.80;;;22.20;67.50;;;;;;5010063;28;20033;-51
2023/07/30 06:53:56;;;;;;;1.40;1.30;;;22.20;67.60;;;;;;5016821;28;20041;-50
2023/07/30 06:56:21;;;;;;;1.60;1.42;;;22.20;67.80;;;;;;5013977;28;20030;-51
2023/07/30 06:58:47;;;;;;;1.80;1.45;;;22.20;67.70;;;;;;5013407;28;20509;-50
2023/07/30 07:01:12;;;;;;;2.13;1.52;;;22.20;67.60;;;;;;5011853;28;20050;-49
2023/07/30 07:03:38;;;;;;;1.50;1.38;;;22.20;67.60;;;;;;5008617;28;20383;-51
2023/07/30 07:06:04;;;;;;;1.48;1.38;;;22.20;67.70;;;;;;5010321;28;20116;-54
2023/07/30 07:08:30;;;;;;;1.98;1.60;;;22.20;67.60;;;;;;5014503;28;20064;-50
2023/07/30 07:10:56;;;;;;;1.70;1.40;;;22.20;67.40;;;;;;5021197;28;20443;-50
2023/07/30 07:13:22;;;;;;;1.92;1.60;;;22.20;67.40;;;;;;5006659;28;20227;-51
2023/07/30 07:15:47;;;;;;;1.85;1.38;;;22.20;67.60;;;;;;5016904;28;20058;-52
2023/07/30 07:18:13;;;;;;;1.50;1.40;;;22.20;67.60;;;;;;5007080;28;20549;-51
2023/07/30 07:20:39;;;;;;;2.38;1.60;;;22.20;67.70;;;;;;5010250;28;20514;-51
2023/07/30 07:23:04;;;;;;;1.88;1.50;;;22.20;67.40;;;;;;5012377;28;20034;-50
2023/07/30 07:25:30;;;;;;;1.73;1.50;;;22.20;67.60;;;;;;5014858;28;20022;-53
2023/07/30 07:27:55;;;;;;;1.50;1.40;;;22.20;67.50;;;;;;5013107;28;20041;-50
2023/07/30 07:30:21;;;;;;;2.05;1.60;;;22.20;67.50;;;;;;5012722;28;20037;-50
2023/07/30 07:32:50;;;;;;;1.60;1.50;;;22.20;67.60;;;;;;5011212;28;20038;-49
2023/07/30 07:35:16;;;;;;;1.83;1.50;;;22.20;67.60;;;;;;5016163;28;20603;-53
2023/07/30 07:37:42;;;;;;;1.58;1.48;;;22.20;67.60;;;;;;5009001;28;20121;-53
2023/07/30 07:40:09;;;;;;;1.45;1.25;;;22.20;67.60;;;;;;5010037;28;20121;-54
2023/07/30 07:42:35;;;;;;;1.90;1.70;;;22.20;67.50;;;;;;5006161;28;20041;-50
2023/07/30 07:45:01;;;;;;;2.75;1.23;;;22.20;67.60;;;;;;5008996;28;20081;-51
2023/07/30 07:47:26;;;;;;;1.55;1.45;;;22.20;67.60;;;;;;5013363;28;20114;-51
2023/07/30 07:49:52;;;;;;;1.75;1.65;;;22.20;67.50;;;;;;5009698;28;20026;-50
2023/07/30 07:52:19;;;;;;;2.80;1.70;;;22.20;67.60;;;;;;5014124;28;20551;-51
2023/07/30 07:54:45;;;;;;;2.60;1.85;;;22.20;68.00;;;;;;5015500;28;21336;-50
2023/07/30 07:57:10;;;;;;;1.85;1.48;;;22.20;67.60;;;;;;5011484;28;20091;-49
2023/07/30 07:59:36;;;;;;;1.58;1.27;;;22.20;67.60;;;;;;5010646;28;20046;-50
2023/07/30 08:02:02;;;;;;;1.88;1.67;;;22.20;67.60;;;;;;4998547;28;20049;-52
2023/07/30 08:04:28;;;;;;;1.42;1.33;;;22.20;67.50;;;;;;5008136;28;20026;-50
2023/07/30 08:06:53;;;;;;;2.67;1.67;;;22.20;67.50;;;;;;5009330;28;20384;-52
2023/07/30 08:09:19;;;;;;;1.70;1.23;;;22.20;67.60;;;;;;5008112;28;20099;-50
2023/07/30 08:11:44;;;;;;;1.65;1.55;;;22.20;67.50;;;;;;5005185;28;20030;-49
2023/07/30 08:14:10;;;;;;;1.98;1.77;;;22.20;67.60;;;;;;5010027;28;20033;-50
2023/07/30 08:16:35;;;;;;;1.95;1.50;;;22.20;68.70;;;;;;5010721;28;20037;-52
2023/07/30 08:19:01;;;;;;;1.73;1.60;;;22.20;67.80;;;;;;5012737;28;20044;-53
2023/07/30 08:21:26;;;;;;;2.25;1.73;;;22.20;67.60;;;;;;5014759;28;20042;-51
2023/07/30 08:23:52;;;;;;;1.90;1.60;;;22.20;67.90;;;;;;5010066;28;20036;-52
2023/07/30 08:26:17;;;;;;;1.70;1.40;;;22.20;67.80;;;;;;5011893;28;20030;-50
2023/07/30 08:28:43;;;;;;;1.38;1.27;;;22.20;67.70;;;;;;5009387;28;20029;-51
2023/07/30 08:31:08;;;;;;;1.58;1.42;;;22.20;67.60;;;;;;5009737;28;20079;-51
2023/07/30 08:33:34;;;;;;;1.25;1.15;;;22.20;67.60;;;;;;5007269;28;20034;-51
2023/07/30 08:35:59;;;;;;;1.85;1.60;;;22.20;67.60;;;;;;5013115;28;20029;-54
2023/07/30 08:38:25;;;;;;;2.75;1.20;;;22.20;67.70;;;;;;5013316;28;20040;-51
2023/07/30 08:40:51;;;;;;;1.50;1.38;;;22.30;67.60;;;;;;5010041;28;20045;-51
2023/07/30 08:43:19;;;;;;;1.73;1.60;;;22.20;67.60;;;;;;5017301;28;20032;-52
2023/07/30 08:45:45;;;;;;;1.65;1.48;;;22.20;67.60;;;;;;5013762;28;20030;-53
2023/07/30 08:48:10;;;;;;;1.60;1.50;;;22.20;67.30;;;;;;5008528;28;20589;-50
2023/07/30 08:50:37;;;;;;;1.75;1.63;;;22.30;67.30;;;;;;5015732;28;20037;-50
2023/07/30 08:53:03;;;;;;;1.58;1.40;;;22.20;67.60;;;;;;5017904;28;20037;-52
2023/07/30 08:55:29;;;;;;;2.05;1.50;;;22.20;67.40;;;;;;5017362;28;20083;-51
2023/07/30 08:57:57;;;;;;;1.52;1.42;;;22.20;67.30;;;;;;5013660;28;20048;-51
2023/07/30 09:00:25;;;;;;;1.73;1.30;;;22.30;67.40;;;;;;5011940;28;20467;-52
2023/07/30 09:02:58;;;;;;;1.70;1.40;;;22.20;67.60;;;;;;5011168;28;20076;-51
2023/07/30 09:05:24;;;;;;;1.60;1.33;;;22.20;67.60;;;;;;5015094;28;20042;-51
2023/07/30 09:07:49;;;;;;;1.55;1.45;;;22.30;67.40;;;;;;5010930;28;20140;-51
2023/07/30 09:10:15;;;;;;;2.67;1.48;;;22.20;67.50;;;;;;5012691;28;20038;-52
2023/07/30 09:12:41;;;;;;;1.40;1.30;;;22.20;67.30;;;;;;5010717;28;20076;-51
2023/07/30 09:15:07;;;;;;;1.27;1.10;;;22.20;67.50;;;;;;5015658;28;20133;-51
2023/07/30 09:17:36;;;;;;;1.75;1.50;;;22.20;67.30;;;;;;5017585;28;20493;-51
2023/07/30 09:20:03;;;;;;;1.77;1.40;;;22.20;67.30;;;;;;5018501;28;20453;-52
2023/07/30 09:22:40;;;;;;;1.30;1.20;;;22.30;67.60;;;;;;5016170;28;20029;-53
2023/07/30 09:25:07;;;;;;;1.40;1.30;;;22.30;67.50;;;;;;5014064;28;20703;-50
2023/07/30 09:27:32;;;;;;;2.35;1.92;;;22.20;67.30;;;;;;5013883;28;20137;-49
2023/07/30 09:30:00;;;;;;;2.60;1.42;;;22.20;67.50;;;;;;5010706;28;20514;-51
2023/07/30 09:32:27;;;;;;;1.40;1.30;;;22.20;67.20;;;;;;5013806;28;20030;-52
2023/07/30 09:34:52;;;;;;;1.60;1.50;;;22.30;67.60;;;;;;5007620;28;20719;-50
2023/07/30 09:37:18;;;;;;;1.52;1.42;;;22.30;67.90;;;;;;5010310;28;20127;-51
2023/07/30 09:39:47;;;;;;;1.88;1.58;;;22.30;67.60;;;;;;5014326;28;20033;-53
2023/07/30 09:42:12;;;;;;;1.45;1.35;;;22.30;67.60;;;;;;5014040;28;20026;-50
2023/07/30 09:44:39;;;;;;;2.17;1.58;;;22.30;67.60;;;;;;5014814;28;20029;-49
2023/07/30 09:47:09;;;;;;;1.30;1.20;;;22.30;67.50;;;;;;5015392;28;20053;-50
2023/07/30 09:49:35;;;;;;;1.70;1.60;;;22.20;67.10;;;;;;5016292;28;20033;-51
2023/07/30 09:52:02;;;;;;;1.70;1.40;;;22.20;67.20;;;;;;5017933;28;20120;-50
2023/07/30 09:54:29;;;;;;;1.67;1.48;;;22.30;67.10;;;;;;5014956;28;20033;-52
2023/07/30 09:56:54;;;;;;;1.80;1.33;;;22.30;67.00;;;;;;5011842;28;20041;-51
2023/07/30 09:59:20;;;;;;;1.85;1.25;;;22.30;67.00;;;;;;5010842;28;20041;-51
2023/07/30 10:01:49;;;;;;;2.30;1.33;;;22.30;66.90;;;;;;5011972;28;20092;-53
2023/07/30 10:04:18;;;;;;;1.63;1.13;;;22.30;66.80;;;;;;5016481;28;20029;-51
2023/07/30 10:07:04;;;;;;;1.48;1.30;;;22.30;67.40;;;;;;5013531;28;20033;-52
2023/07/30 10:09:43;;;;;;;1.55;1.45;;;22.30;66.70;;;;;;5016661;28;20033;-52
2023/07/30 10:12:12;;;;;;;1.25;1.05;;;22.30;66.70;;;;;;5013997;28;20498;-55
2023/07/30 10:14:37;;;;;;;1.20;1.10;;;22.30;66.70;;;;;;5015070;28;20037;-52
2023/07/30 10:17:03;;;;;;;3.03;1.63;;;22.30;66.80;;;;;;5021566;28;20453;-51
2023/07/30 10:19:29;;;;;;;1.60;1.50;;;22.30;66.60;;;;;;5013889;28;20038;-51
2023/07/30 10:22:19;;;;;;;1.63;1.50;;;22.20;66.30;;;;;;5015632;28;20761;-54
2023/07/30 10:25:07;;;;;;;1.30;1.20;;;22.30;66.30;;;;;;5011834;28;20033;-50
2023/07/30 10:27:38;;;;;;;1.75;1.10;;;22.30;66.40;;;;;;5009717;28;20120;-51
2023/07/30 10:30:16;;;;;;;1.50;1.40;;;22.30;66.20;;;;;;5012110;28;20052;-56
2023/07/30 10:33:01;;;;;;;1.45;1.25;;;22.30;65.70;;;;;;5008872;28;20030;-52
2023/07/30 10:35:43;;;;;;;1.25;1.15;;;22.30;64.70;;;;;;5011186;28;20117;-53
2023/07/30 10:38:34;;;;;;;1.13;0.98;;;22.30;65.40;;;;;;5016007;28;20080;-51
2023/07/30 10:41:02;;;;;;;1.45;1.20;;;22.30;64.80;;;;;;5006319;28;20049;-51
2023/07/30 10:43:35;;;;;;;1.75;1.27;;;22.30;65.20;;;;;;5013613;28;20120;-52
2023/07/30 10:46:00;;;;;;;1.38;1.20;;;22.30;64.80;;;;;;5012791;28;20060;-50
2023/07/30 10:48:33;;;;;;;1.23;1.13;;;22.30;65.20;;;;;;5014398;28;20034;-50
2023/07/30 10:51:00;;;;;;;1.50;1.40;;;22.30;65.40;;;;;;5013462;28;20058;-52
2023/07/30 10:53:26;;;;;;;1.73;1.23;;;22.30;65.60;;;;;;5013505;28;20530;-51
2023/07/30 10:55:53;;;;;;;1.35;1.10;;;22.30;65.70;;;;;;5016356;28;20057;-52
2023/07/30 10:58:18;;;;;;;1.30;1.20;;;22.30;65.70;;;;;;5009661;28;20048;-51
2023/07/30 11:00:44;;;;;;;1.10;1.00;;;22.30;65.60;;;;;;5005784;28;20495;-50
2023/07/30 11:03:09;;;;;;;1.08;0.98;;;22.30;65.50;;;;;;5012092;28;20467;-51
2023/07/30 11:05:38;;;;;;;1.20;1.02;;;22.30;65.40;;;;;;5012156;28;20438;-50
2023/07/30 11:08:05;;;;;;;1.20;1.10;;;22.30;65.20;;;;;;5011360;28;20030;-51
2023/07/30 11:10:30;;;;;;;1.30;0.90;;;22.30;65.30;;;;;;5014063;28;20048;-51
2023/07/30 11:12:57;;;;;;;1.00;0.68;;;22.30;65.50;;;;;;5015115;28;20523;-52
2023/07/30 11:15:24;;;;;;;1.17;1.00;;;22.40;65.50;;;;;;5014294;28;20403;-51
2023/07/30 11:17:52;;;;;;;1.25;0.98;;;22.30;65.40;;;;;;5014618;28;20432;-50
2023/07/30 11:20:26;;;;;;;1.35;1.13;;;22.40;65.50;;;;;;5008615;28;20095;-50
2023/07/30 11:22:52;;;;;;;1.10;1.00;;;22.30;65.50;;;;;;5009202;28;20037;-54
2023/07/30 11:25:18;;;;;;;0.88;0.80;;;22.30;65.50;;;;;;5009569;28;20033;-50
2023/07/30 11:27:50;;;;;;;1.58;1.10;;;22.30;65.60;;;;;;5017415;28;20099;-52
2023/07/30 11:30:16;;;;;;;1.90;1.10;;;22.30;65.70;;;;;;5015026;28;20030;-51
2023/07/30 11:32:44;;;;;;;1.40;0.90;;;22.30;65.60;;;;;;5011598;28;20113;-50
2023/07/30 11:35:14;;;;;;;1.27;0.90;;;22.30;65.40;;;;;;5011320;28;20044;-53
2023/07/30 11:37:42;;;;;;;1.02;0.93;;;22.30;65.60;;;;;;5014191;28;20032;-50
2023/07/30 11:40:11;;;;;;;1.40;0.90;;;22.30;65.40;;;;;;5015958;28;20136;-50
2023/07/30 11:42:37;;;;;;;1.35;1.10;;;22.30;65.40;;;;;;5014109;28;20244;-51
2023/07/30 11:45:23;;;;;;;0.80;0.70;;;22.40;64.80;;;;;;5016136;28;20038;-51
2023/07/30 11:47:48;;;;;;;1.20;1.05;;;22.30;64.80;;;;;;5015685;28;20053;-50
2023/07/30 11:50:15;;;;;;;0.80;0.80;;;22.30;65.20;;;;;;5014185;28;20022;-50
2023/07/30 11:52:54;;;;;;;1.23;0.70;;;22.30;64.70;;;;;;5012527;28;20041;-51
2023/07/30 11:55:21;;;;;;;1.20;1.00;;;22.30;65.00;;;;;;5013842;28;20053;-50
2023/07/30 11:57:46;;;;;;;0.93;0.88;;;22.30;65.10;;;;;;5006094;28;20022;-53
2023/07/30 12:00:12;;;;;;;1.65;0.90;;;22.30;65.20;;;;;;5014238;28;20056;-51
2023/07/30 12:02:38;;;;;;;1.27;0.80;;;22.40;65.20;;;;;;5010292;28;20026;-50
2023/07/30 12:05:05;;;;;;;0.90;0.90;;;22.40;65.20;;;;;;5008524;28;20396;-50
2023/07/30 12:07:32;;;;;;;0.77;0.77;;;22.40;64.50;;;;;;5013645;28;20034;-51
2023/07/30 12:10:09;;;;;;;0.90;0.80;;;22.40;64.70;;;;;;5017931;28;20034;-51
2023/07/30 12:12:34;;;;;;;0.93;0.77;;;22.40;64.80;;;;;;5011591;28;20517;-51
2023/07/30 12:15:00;;;;;;;0.77;0.77;;;22.40;64.80;;;;;;5019761;28;20049;-50
2023/07/30 12:17:25;;;;;;;1.75;1.10;;;22.40;64.80;;;;;;5019182;28;20045;-51
2023/07/30 12:19:51;;;;;;;0.98;0.90;;;22.30;64.90;;;;;;5017283;28;20041;-51
2023/07/30 12:22:16;;;;;;;0.82;0.63;;;22.40;65.00;;;;;;5014423;28;20029;-50
2023/07/30 12:24:42;;;;;;;1.25;1.10;;;22.40;65.00;;;;;;5015962;28;20036;-51
2023/07/30 12:27:08;;;;;;;0.90;0.70;;;22.40;64.90;;;;;;5011716;28;20038;-50
2023/07/30 12:29:33;;;;;;;0.77;0.65;;;22.40;64.90;;;;;;5013758;28;20511;-50
2023/07/30 12:31:59;;;;;;;0.68;0.68;;;22.40;65.10;;;;;;5012548;28;20053;-51
2023/07/30 12:34:25;;;;;;;0.90;0.90;;;22.40;65.10;;;;;;5010816;28;21416;-51
2023/07/30 12:36:50;;;;;;;1.10;0.90;;;22.40;64.90;;;;;;5019026;28;20074;-52
2023/07/30 12:39:16;;;;;;;1.20;0.85;;;22.40;65.00;;;;;;5020512;28;20029;-52
2023/07/30 12:41:41;;;;;;;1.00;0.90;;;22.40;65.10;;;;;;5018813;28;20119;-51
2023/07/30 12:44:09;;;;;;;0.85;0.80;;;22.40;65.30;;;;;;5018689;28;20079;-51